Amargosa Valley, Nevada Weather observations

Data are for observation ending at time listed.
 Day   Time    Ave.   Ave.  Ave.  Vector   Max.   Stn.    Total    Solar   Ave.  
  of    of     Air    Rel.  Wind   Wind    Wind   Baro.  Precip.   Rad.    Soil  
Year   Day     Temp.  Hum.  Speed  Dir.    Gust   Pres.                    Temp. 
2016   (PST)    F      %     mph   deg.    mph     mb.     in.     W/m2     F   
------------------------------------------------------------------------------
 179   21:30   95.6    13    5.1   187      7.7   927.7    0.00       0    98.9
 179   21:40   96.4    13    5.5   190      8.8   927.6    0.00       0    98.8
 179   21:50   94.4    13    3.9   121      6.1   927.7    0.00       0    98.8
 179   22:00   92.3    14    4.7   109      7.0   927.8    0.00       0    98.7
 179   22:10   92.3    14    5.4   120      7.7   927.8    0.00       0    98.7
 179   22:20   91.7    15    5.9   111      8.5   927.9    0.00       0    98.6
 179   22:30   91.0    16    7.2   108      9.6   928.1    0.00       0    98.5
 179   22:40   91.1    16    5.5   118      9.3   928.1    0.00       0    98.5
 179   22:50   92.8    16    9.1   141     13.3   928.2    0.00       0    98.4
 179   23:00   93.1    16    6.6   148     10.2   928.3    0.00       0    98.3
 179   23:10   93.1    16    8.5   159     13.3   928.3    0.00       0    98.2
 179   23:20   93.3    16    7.4   152     10.2   928.3    0.00       0    98.1
 179   23:30   93.2    16    7.9   149     11.2   928.4    0.00       0    98.0
 179   23:40   93.2    16    7.7   148     11.4   928.6    0.00       0    98.0
 179   23:50   92.0    17    5.9   129      9.1   928.6    0.00       0    97.9
 180    0:00   91.2    17    5.7   128      8.0   928.7    0.00       0    97.8
 180    0:10   90.7    18    5.6   128      7.8   928.8    0.00       0    97.7
 180    0:20   90.5    18    6.0   138      8.8   928.8    0.00       0    97.7
 180    0:30   90.4    19    6.6   148     10.2   928.9    0.00       0    97.6
 180    0:40   91.0    18    7.1   148      9.6   928.8    0.00       0    97.5
 180    0:50   91.3    18    6.4   149      9.2   928.7    0.00       0    97.4
 180    1:00   91.3    18    5.5   153      8.5   928.6    0.00       0    97.3
 180    1:10   90.7    18    6.4   135     11.0   928.6    0.00       0    97.3
 180    1:20   90.2    19    7.0   132     10.4   928.6    0.00       0    97.2
 180    1:30   89.8    19    7.5   118     10.4   928.6    0.00       0    97.1
 180    1:40   89.9    19    7.6   126     11.2   928.6    0.00       0    97.1
 180    1:50   90.2    19    7.9   138     11.5   928.6    0.00       0    97.0
 180    2:00   89.7    19    8.2   140     11.2   928.6    0.00       0    96.9
 180    2:10   89.1    19    6.7   134      9.7   928.7    0.00       0    96.8
 180    2:20   88.5    19    7.2   134     10.7   928.9    0.00       0    96.8
 180    2:30   88.2    20    6.2   140      9.2   928.9    0.00       0    96.7
 180    2:40   87.1    20    5.4   136      7.3   928.9    0.00       0    96.6
 180    2:50   86.1    21    5.2   138      8.6   928.9    0.00       0    96.6
 180    3:00   86.7    21    6.3   145      8.8   929.0    0.00       0    96.5
 180    3:10   86.3    21    5.2   145      9.1   929.2    0.00       0    96.4
 180    3:20   85.4    22    3.8   138      5.6   929.2    0.00       0    96.3
 180    3:30   85.2    22    3.7   124      4.7   929.3    0.00       0    96.3
 180    3:40   85.2    22    2.5   130      4.4   929.3    0.00       0    96.2
 180    3:50   85.6    22    1.8   127      2.8   929.3    0.00       0    96.1
 180    4:00   86.1    21    2.3   109      3.2   929.4    0.00       0    96.0
 180    4:10   86.8    21    3.6    84      5.0   929.4    0.00       0    95.9
 180    4:20   87.0    21    3.9    80      6.1   929.6    0.00       0    95.8
 180    4:30   87.5    21    4.7    86      7.1   929.9    0.00       1    95.8
 180    4:40   86.8    21    4.5   111      6.9   930.0    0.00       3    95.7
 180    4:50   86.9    21    3.8   117      6.4   930.1    0.00       6    95.6
 180    5:00   87.0    21    3.6    95      4.8   930.3    0.00      10    95.5
 180    5:10   87.0    21    1.9    87      3.7   930.2    0.00      18    95.4
 180    5:20   87.5    21    1.6    82      2.9   930.3    0.00      37    95.4
 180    5:30   87.7    21    2.1    81      3.8   930.4    0.00      61    95.3
 180    5:40   88.5    21    1.2   105      3.3   930.4    0.00      72    95.2
 180    5:50   88.7    20    3.2   118      5.0   930.4    0.00      66    95.1
 180    6:00   88.9    20    4.4   103      6.0   930.4    0.00      63    95.0
 180    6:10   89.1    20    4.5    94      6.8   930.6    0.00      63    95.0
 180    6:20   89.3    20    7.1   100      9.4   930.9    0.00      85    94.9
 180    6:30   90.3    19    5.9   116      8.8   931.0    0.00     211    94.9
 180    6:40   92.3    18    7.0   136     10.4   931.0    0.00     322    94.8
 180    6:50   92.6    18    8.0   158     11.2   931.2    0.00     192    94.7
 180    7:00   92.2    19    8.4   155     12.1   931.3    0.00     114    94.6
 180    7:10   92.1    19    6.9   146      9.9   931.4    0.00      99    94.6
 180    7:20   92.3    19    7.9   163     11.5   931.5    0.00     163    94.5
 180    7:30   92.6    19    7.0   153     10.3   931.6    0.00     165    94.5
 180    7:40   92.9    19    6.2   162      8.8   931.6    0.00     171    94.5
 180    7:50   93.6    18    6.9   138      9.9   931.8    0.00     217    94.4
 180    8:00   93.7    18    6.8   149      9.1   931.8    0.00     232    94.4
 180    8:10   95.0    17    7.8   142     11.5   931.8    0.00     487    94.4
 180    8:20   95.5    17    7.8   139     11.2   931.9    0.00     350    94.4
 180    8:30   96.2    16    7.8   142     11.7   931.8    0.00     533    94.4
 180    8:40   96.6    16    8.7   140     13.1   931.8    0.00     417    94.3
 180    8:50   97.0    16    9.4   155     15.7   931.7    0.00     432    94.3
 180    9:00   96.9    16    8.4   157     13.1   931.6    0.00     398    94.3
 180    9:10   98.3    15    7.1   163     13.7   931.5    0.00     647    94.3
 180    9:20   99.8    14    9.5   176     15.9   931.5    0.00     744    94.3
 180    9:30  100.5    13   10.5   183     16.4   931.5    0.00     830    94.3
 180    9:40  100.9    13    9.8   175     16.7   931.7    0.00     943    94.3
 180    9:50  101.1    13    9.0   151     18.0   931.7    0.00     888    94.4
 180   10:00  101.9    12   10.1   142     21.9   931.7    0.00     887    94.4
 180   10:10  101.9    13    8.9   176     15.4   931.7    0.00     889    94.3
 180   10:20  101.5    13   11.8   168     17.9   931.7    0.00     853    94.4
 180   10:30  101.6    13   10.3   145     24.0   931.8    0.00     673    94.4
 180   10:40  100.9    13   10.6   160     18.4   931.8    0.00     695    94.5
 180   10:50  100.2    13   12.5   177     18.5   931.8    0.00     479    94.6
 180   11:00  100.2    13   10.9   168     17.0   931.7    0.00     552    94.7
 180   11:10  100.6    13   10.8   174     22.9   931.6    0.00     523    94.7
 180   11:20   99.8    13   11.8   184     20.1   931.6    0.00     460    94.8
 180   11:30   99.9    13   12.2   174     18.9   931.6    0.00     472    94.9
 180   11:40   99.6    13   11.3   181     15.3   931.5    0.00     358    95.0
 180   11:50   99.3    13   10.5   189     16.4   931.4    0.00     290    95.1
 180   12:00   99.1    13    9.6   183     13.1   931.3    0.00     250    95.2
 180   12:10   98.9    13   10.3   184     14.5   931.2    0.00     291    95.3
 180   12:20   98.5    13   10.9   176     14.8   931.1    0.00     340    95.4
 180   12:30   98.8    13    9.7   183     15.1   931.0    0.00     441    95.5
 180   12:40   99.4    13    8.7   198     14.0   930.9    0.00     596    95.5
 180   12:50   99.9    13    8.7   195     13.5   930.8    0.00     526    95.6
 180   13:00   99.7    13    7.6   181     13.8   930.7    0.00     331    95.7
 180   13:10   99.6    13    7.5   180     12.1   930.7    0.00     295    95.8
 180   13:20   99.9    13    7.1   170     10.2   930.5    0.00     376    95.9
 180   13:30  100.2    13    5.7   195     12.1   930.4    0.00     508    95.9
 180   13:40  100.4    13    6.6   185     11.1   930.3    0.00     554    96.0
 180   13:50  100.9    12    3.9   135     10.7   930.2    0.00     539    96.1
 180   14:00  101.8    12    7.0   164     12.5   930.0    0.00    1059    96.1
 180   14:10  101.8    12    7.1   154     13.7   929.9    0.00     806    96.2
 180   14:20  102.2    12    3.0    94      6.1   929.8    0.00     793    96.3
 180   14:30  102.0    12    4.0   149     11.6   929.7    0.00     639    96.4
 180   14:40  102.5    12    7.7   103     13.2   929.6    0.00     620    96.4
 180   14:50  101.7    12    7.3    96     12.2   929.5    0.00     361    96.5
 180   15:00  101.5    12    7.0    92     11.2   929.3    0.00     471    96.7
 180   15:10  101.4    12    7.1    87     11.7   929.1    0.00     515    96.8
 180   15:20  101.7    12    4.6    82     10.7   929.0    0.00     229    96.9
 180   15:30  102.1    12    3.3    73      7.3   928.9    0.00     175    97.0
 180   15:40  101.9    12    3.6   122      8.3   928.8    0.00     154    97.1
 180   15:50  102.1    12    2.8    91      7.7   928.6    0.00     155    97.2
 180   16:00  101.3    12    4.7   121      8.5   928.6    0.00     117    97.3
 180   16:10  101.0    12    3.7   149      6.6   928.4    0.00      96    97.4
 180   16:20  101.4    12    2.8   124      6.2   928.2    0.00      90    97.5
 180   16:30  101.9    12    1.4    44      3.8   928.1    0.00      66    97.7
 180   16:40  102.3    12    0.8   331      4.9   928.0    0.00      61    97.8
 180   16:50  102.5    12    2.0   202      6.4   927.8    0.00      82    97.8
 180   17:00  101.9    12    4.0   212      7.0   927.7    0.00      53    97.9
 180   17:10  102.0    12    1.9   231      4.8   927.5    0.00      48    97.9
 180   17:20  101.7    12    1.5   257      6.1   927.5    0.00      47    98.0
 180   17:30  101.8    12    1.8   276      5.0   927.4    0.00      55    98.0
 180   17:40  102.8    12    0.4   294      2.6   927.4    0.00      43    98.0
 180   17:50  102.8    12    1.8   306      5.0   927.4    0.00      51    98.0
 180   18:00  102.1    12    0.2   319      2.1   927.3    0.00      69    98.1
 180   18:10  101.2    12    0.9   309      3.9   927.3    0.00      47    98.1
 180   18:20  100.6    12    0.0     0      0.0   927.3    0.00      22    98.1
 180   18:30  100.3    12    0.0     0      0.0   927.3    0.00      24    98.1
 180   18:40   99.3    13    0.0   326      0.4   927.3    0.00      20    98.1
 180   18:50   98.7    13    0.0     0      0.0   927.4    0.00      14    98.1
 180   19:00   98.3    14    0.0     0      0.0   927.4    0.00       7    98.1
 180   19:10   97.6    14    0.0     0      0.0   927.5    0.00       3    98.1
 180   19:20   97.7    14    0.0     0      0.0   927.6    0.00       2    98.1
 180   19:30   97.1    13    0.0     0      0.0   927.6    0.00       0    98.1
 180   19:40   96.1    13    0.0     0      0.0   927.6    0.00       0    98.1
 180   19:50   95.2    13    0.0     0      0.0   927.6    0.00       0    98.0
 180   20:00   94.3    14    0.0    10      0.1   927.6    0.00       0    98.0
 180   20:10   93.3    14    0.0     0      0.0   927.6    0.00       0    98.0
 180   20:20   92.5    14    2.3   310      7.5   927.8    0.00       0    98.0
 180   20:30   93.2    14    0.3   321      3.8   927.9    0.00       0    97.9
 180   20:40   92.0    14    1.4    60      3.8   928.2    0.00       0    97.9
 180   20:50   92.4    15    1.9    51      5.6   928.3    0.00       0    97.8
 180   21:00   94.1    14    0.5    22      3.1   928.3    0.00       0    97.8
 180   21:10   93.0    15    0.2   323      4.6   928.5    0.00       0    97.7
 180   21:20   91.8    16    0.8    72      2.7   928.6    0.00       0    97.6

Return to Amargosa Valley, Nevada graphs page.


Western Regional Climate Center,wrcc@dri.edu